createdAt,value
2019-05-11T00:00:23.538Z,96090.89
2019-05-11T00:01:31.120Z,96086.64
2019-05-11T00:02:38.328Z,96091.50
2019-05-11T00:03:45.901Z,96086.30
2019-05-11T00:04:53.141Z,96091.16
2019-05-11T00:06:00.743Z,96090.00
2019-05-11T00:07:08.044Z,96093.42
2019-05-11T00:08:15.677Z,96090.50
2019-05-11T00:09:23.230Z,96086.73
2019-05-11T00:10:30.815Z,96094.55
2019-05-11T00:11:38.061Z,96093.24
2019-05-11T00:12:45.687Z,96089.00
2019-05-11T00:13:52.971Z,96097.97
2019-05-11T00:15:00.543Z,96095.50
2019-05-11T00:16:07.828Z,96090.98
2019-05-11T00:17:15.550Z,96097.02
2019-05-11T00:18:22.776Z,96091.47
2019-05-11T00:19:30.368Z,96088.86
2019-05-11T00:20:37.601Z,96088.52
2019-05-11T00:21:45.190Z,96086.27
2019-05-11T00:22:52.415Z,96079.41
2019-05-11T00:23:59.987Z,96082.83
2019-05-11T00:25:08.106Z,96086.27
2019-05-11T00:26:15.845Z,96075.98
2019-05-11T00:27:23.057Z,96075.16
2019-05-11T00:28:30.821Z,96071.73
2019-05-11T00:29:38.110Z,96081.33
2019-05-11T00:30:45.678Z,96079.68
2019-05-11T00:31:52.890Z,96067.63
2019-05-11T00:33:01.275Z,96073.44
2019-05-11T00:34:08.508Z,96069.33
2019-05-11T00:35:16.125Z,96063.47
2019-05-11T00:36:23.354Z,96066.69
2019-05-11T00:37:30.952Z,96068.47
2019-05-11T00:38:38.179Z,96066.00
2019-05-11T00:39:45.793Z,96066.13
2019-05-11T00:40:52.988Z,96061.89
2019-05-11T00:42:00.579Z,96062.36
2019-05-11T00:43:07.770Z,96057.64
2019-05-11T00:44:15.340Z,96062.84
2019-05-11T00:45:22.598Z,96060.59
2019-05-11T00:46:30.197Z,96054.56
2019-05-11T00:47:37.421Z,96054.91
2019-05-11T00:48:45.057Z,96055.38
2019-05-11T00:49:52.307Z,96056.34
2019-05-11T00:50:59.907Z,96050.89
2019-05-11T00:52:07.137Z,96054.11
2019-05-11T00:53:14.753Z,96052.16
2019-05-11T00:54:23.038Z,96047.91
2019-05-11T00:55:30.629Z,96048.52
2019-05-11T00:56:37.866Z,96046.88
2019-05-11T00:57:45.446Z,96047.83
2019-05-11T00:58:52.647Z,96048.31
2019-05-11T01:00:00.151Z,96048.44
2019-05-11T01:01:07.374Z,96046.80
2019-05-11T01:02:14.989Z,96052.95
2019-05-11T01:03:23.167Z,96052.95
2019-05-11T01:04:30.767Z,96048.23
2019-05-11T01:05:37.976Z,96046.59
2019-05-11T01:06:45.536Z,96048.05
2019-05-11T01:07:52.760Z,96046.41
2019-05-11T01:09:01.418Z,96045.59
2019-05-11T01:10:22.930Z,96047.84
2019-05-11T01:11:18.877Z,96047.98
2019-05-11T01:12:26.108Z,96044.90
2019-05-11T01:13:33.691Z,96046.55
2019-05-11T01:14:40.930Z,96045.24
2019-05-11T01:15:48.519Z,96039.83
2019-05-11T01:16:55.756Z,96037.36
2019-05-11T01:18:03.346Z,96033.38
2019-05-11T01:19:10.539Z,96032.99
2019-05-11T01:20:18.813Z,96036.34
2019-05-11T01:21:26.158Z,96038.03
2019-05-11T01:22:33.773Z,96040.11
2019-05-11T01:23:40.969Z,96030.93
2019-05-11T01:24:48.555Z,96034.75
2019-05-11T01:25:55.765Z,96025.95
2019-05-11T01:27:03.427Z,96025.04
2019-05-11T01:28:10.654Z,96017.64
2019-05-11T01:29:18.268Z,96017.11
2019-05-11T01:30:26.663Z,96017.50
2019-05-11T01:31:34.473Z,96008.80
2019-05-11T01:32:41.686Z,96005.86
2019-05-11T01:33:49.260Z,96002.59
2019-05-11T01:34:56.495Z,95994.59
2019-05-11T01:36:04.070Z,95991.30
2019-05-11T01:37:11.306Z,95985.15
2019-05-11T01:38:18.881Z,95989.05
2019-05-11T01:39:26.164Z,95987.27
2019-05-11T01:40:33.739Z,95981.59
2019-05-11T01:41:40.944Z,95985.36
2019-05-11T01:42:48.547Z,95984.76
2019-05-11T01:43:55.770Z,95976.32
2019-05-11T01:45:03.357Z,95974.77
2019-05-11T01:46:10.581Z,95973.67
2019-05-11T01:47:18.187Z,95967.39
2019-05-11T01:48:25.441Z,95967.91
2019-05-11T01:49:33.069Z,95969.77
2019-05-11T01:50:40.340Z,95960.89
2019-05-11T01:51:47.879Z,95965.12
2019-05-11T01:52:55.092Z,95965.34
2019-05-11T01:54:02.696Z,95958.70
2019-05-11T01:55:10.247Z,95962.44
2019-05-11T01:56:17.820Z,95956.77
2019-05-11T01:57:25.047Z,95963.61
2019-05-11T01:58:32.780Z,95958.89
2019-05-11T01:59:39.990Z,95970.24
2019-05-11T02:00:47.617Z,95969.23
2019-05-11T02:01:54.829Z,95973.27
2019-05-11T02:03:02.418Z,95975.18
2019-05-11T02:04:09.642Z,95980.03
2019-05-11T02:05:32.516Z,95977.91
2019-05-11T02:06:39.771Z,95967.17
2019-05-11T02:07:47.370Z,95960.28
2019-05-11T02:08:54.595Z,95961.89
2019-05-11T02:10:02.198Z,95955.09
2019-05-11T02:11:15.847Z,95954.92
2019-05-11T02:12:18.720Z,95958.34
2019-05-11T02:13:25.918Z,95955.27
2019-05-11T02:14:33.488Z,95960.33
2019-05-11T02:15:40.695Z,95952.88
2019-05-11T02:16:48.256Z,95951.92
2019-05-11T02:17:55.507Z,95944.95
2019-05-11T02:19:03.099Z,95953.91
2019-05-11T02:20:10.814Z,95953.30
2019-05-11T02:21:18.404Z,95952.69
2019-05-11T02:22:25.643Z,95955.95
2019-05-11T02:23:33.246Z,95959.58
2019-05-11T02:24:40.452Z,95956.02
2019-05-11T02:25:48.051Z,95957.19
2019-05-11T02:26:55.281Z,95958.22
2019-05-11T02:28:02.911Z,95957.61
2019-05-11T02:29:10.112Z,95959.73
2019-05-11T02:30:17.876Z,95953.54
2019-05-11T02:31:25.091Z,95960.20
2019-05-11T02:32:32.656Z,95947.47
2019-05-11T02:33:39.923Z,95947.27
2019-05-11T02:34:47.509Z,95950.27
2019-05-11T02:35:54.734Z,95943.52
2019-05-11T02:37:02.323Z,95942.91
2019-05-11T02:38:09.549Z,95936.13
2019-05-11T02:39:17.121Z,95930.20
2019-05-11T02:40:25.127Z,95925.53
2019-05-11T02:41:37.069Z,95918.91
2019-05-11T02:42:41.928Z,95908.70
2019-05-11T02:43:49.547Z,95905.80
2019-05-11T02:44:56.768Z,95904.21
2019-05-11T02:46:04.376Z,95911.95
2019-05-11T02:47:11.596Z,95901.13
2019-05-11T02:48:19.170Z,95907.89
2019-05-11T02:49:28.158Z,95903.43
2019-05-11T02:50:37.342Z,95905.02
2019-05-11T02:51:46.424Z,95901.39
2019-05-11T02:52:54.503Z,95899.53
2019-05-11T02:54:04.026Z,95897.19
2019-05-11T02:55:12.111Z,95891.47
2019-05-11T02:56:19.345Z,95887.48
2019-05-11T02:57:26.963Z,95886.32
2019-05-11T02:58:34.187Z,95887.41
2019-05-11T02:59:41.758Z,95882.69
2019-05-11T03:00:49.673Z,95877.31
2019-05-11T03:01:57.244Z,95876.97
2019-05-11T03:03:04.485Z,95875.32
2019-05-11T03:04:12.057Z,95877.91
2019-05-11T03:05:20.257Z,95877.09
2019-05-11T03:06:27.855Z,95873.20
2019-05-11T03:07:35.069Z,95867.67
2019-05-11T03:08:42.687Z,95864.25
2019-05-11T03:09:49.908Z,95860.02
2019-05-11T03:10:57.497Z,95861.44
2019-05-11T03:12:04.736Z,95853.78
2019-05-11T03:13:12.290Z,95846.61
2019-05-11T03:14:19.516Z,95844.17
2019-05-11T03:15:27.108Z,95849.14
2019-05-11T03:16:34.346Z,95849.75
2019-05-11T03:17:41.921Z,95847.28
2019-05-11T03:18:49.116Z,95852.59
2019-05-11T03:19:56.679Z,95846.24
2019-05-11T03:21:03.912Z,95845.89
2019-05-11T03:22:11.521Z,95845.23
2019-05-11T03:23:18.734Z,95844.41
2019-05-11T03:24:26.323Z,95848.30
2019-05-11T03:25:33.529Z,95842.30
2019-05-11T03:26:41.103Z,95837.58
2019-05-11T03:27:48.369Z,95848.30
2019-05-11T03:28:57.128Z,95843.59
2019-05-11T03:30:04.502Z,95842.42
2019-05-11T03:31:12.117Z,95841.13
2019-05-11T03:32:19.341Z,95833.34
2019-05-11T03:33:26.886Z,95829.93
2019-05-11T03:34:34.110Z,95822.15
2019-05-11T03:35:41.867Z,95821.93
2019-05-11T03:36:49.218Z,95822.88
2019-05-11T03:37:56.854Z,95826.90
2019-05-11T03:39:04.901Z,95823.48
2019-05-11T03:40:13.701Z,95831.73
2019-05-11T03:41:20.927Z,95837.88
2019-05-11T03:42:28.514Z,95839.64
2019-05-11T03:43:35.739Z,95852.27
2019-05-11T03:44:43.335Z,95857.14
2019-05-11T03:45:50.534Z,95858.75
2019-05-11T03:46:58.121Z,95852.96
2019-05-11T03:48:06.412Z,95867.09
2019-05-11T03:49:15.065Z,95868.27
2019-05-11T03:50:22.289Z,95868.14
2019-05-11T03:51:29.889Z,95867.80
2019-05-11T03:52:37.133Z,95870.26
2019-05-11T03:53:44.702Z,95869.78
2019-05-11T03:54:51.927Z,95859.28
2019-05-11T03:55:59.499Z,95848.43
2019-05-11T03:57:06.706Z,95842.42
2019-05-11T03:58:14.293Z,95841.13
2019-05-11T03:59:21.518Z,95852.45
2019-05-11T04:00:29.089Z,95848.34
2019-05-11T04:01:36.339Z,95846.83
2019-05-11T04:02:43.983Z,95836.92
2019-05-11T04:03:51.201Z,95835.76
2019-05-11T04:04:58.789Z,95829.56
2019-05-11T04:06:06.012Z,95829.69
2019-05-11T04:07:13.585Z,95823.46
2019-05-11T04:08:20.780Z,95826.19
2019-05-11T04:09:28.382Z,95828.08
2019-05-11T04:10:35.598Z,95829.51
2019-05-11T04:11:44.259Z,95828.84
2019-05-11T04:12:51.481Z,95822.14
2019-05-11T04:13:59.098Z,95830.02
2019-05-11T04:15:08.183Z,95827.90
2019-05-11T04:16:15.801Z,95830.14
2019-05-11T04:17:23.654Z,95832.39
2019-05-11T04:18:31.214Z,95832.05
2019-05-11T04:19:38.442Z,95831.09
2019-05-11T04:20:46.023Z,95826.73
2019-05-11T04:21:53.232Z,95809.41
2019-05-11T04:23:03.912Z,95789.14
2019-05-11T04:24:11.133Z,95793.02
2019-05-11T04:25:19.667Z,95791.86
2019-05-11T04:26:26.865Z,95799.51
2019-05-11T04:27:34.447Z,95795.27
2019-05-11T04:28:41.685Z,95797.86
2019-05-11T04:29:49.288Z,95798.69
2019-05-11T04:30:56.530Z,95801.28
2019-05-11T04:32:04.122Z,95803.52
2019-05-11T04:33:11.314Z,95802.23
2019-05-11T04:34:18.929Z,95806.59
2019-05-11T04:35:26.139Z,95799.64
2019-05-11T04:36:33.733Z,95800.93
2019-05-11T04:37:40.975Z,95796.91
2019-05-11T04:38:48.585Z,95789.96
2019-05-11T04:39:55.811Z,95789.01
2019-05-11T04:41:03.413Z,95788.06
2019-05-11T04:42:10.622Z,95785.47
2019-05-11T04:43:18.228Z,95787.14
2019-05-11T04:44:25.439Z,95785.37
2019-05-11T04:45:33.015Z,95787.02
2019-05-11T04:46:40.202Z,95787.48
2019-05-11T04:47:47.772Z,95795.27
2019-05-11T04:48:55.116Z,95788.78
2019-05-11T04:50:02.691Z,95786.53
2019-05-11T04:51:09.918Z,95790.91
2019-05-11T04:52:17.491Z,95789.26
2019-05-11T04:53:24.695Z,95794.79
2019-05-11T04:54:32.284Z,95789.61
2019-05-11T04:55:39.493Z,95787.97
2019-05-11T04:56:47.083Z,95792.20
2019-05-11T04:57:54.341Z,95793.97
2019-05-11T04:59:01.920Z,95787.84
2019-05-11T05:00:09.941Z,95790.77
2019-05-11T05:01:17.559Z,95790.96
2019-05-11T05:02:27.257Z,95790.36
2019-05-11T05:03:40.988Z,95797.66
2019-05-11T05:04:42.987Z,95788.45
2019-05-11T05:05:50.577Z,95790.79
2019-05-11T05:06:59.764Z,95785.48
2019-05-11T05:08:09.709Z,95789.90
2019-05-11T05:09:16.015Z,95788.95
2019-05-11T05:10:23.575Z,95788.00
2019-05-11T05:11:36.830Z,95791.63
2019-05-11T05:12:40.089Z,95792.31
2019-05-11T05:13:47.336Z,95784.75
2019-05-11T05:14:54.884Z,95786.71
2019-05-11T05:16:02.091Z,95785.76
2019-05-11T05:17:09.979Z,95781.73
2019-05-11T05:18:17.215Z,95789.39
2019-05-11T05:19:25.947Z,95785.37
2019-05-11T05:20:33.147Z,95784.77
2019-05-11T05:21:40.731Z,95780.39
2019-05-11T05:22:48.010Z,95778.97
2019-05-11T05:23:55.613Z,95788.23
2019-05-11T05:25:02.839Z,95784.20
2019-05-11T05:26:10.455Z,95775.81
2019-05-11T05:27:17.668Z,95779.09
2019-05-11T05:28:25.254Z,95777.67
2019-05-11T05:29:32.523Z,95780.95
2019-05-11T05:30:40.082Z,95780.48
2019-05-11T05:31:47.318Z,95786.36
2019-05-11T05:32:54.880Z,95791.25
2019-05-11T05:34:02.123Z,95788.53
2019-05-11T05:35:09.719Z,95785.19
2019-05-11T05:36:16.962Z,95777.62
2019-05-11T05:37:24.783Z,95775.20
2019-05-11T05:38:32.114Z,95767.76
2019-05-11T05:39:39.721Z,95765.85
2019-05-11T05:40:46.930Z,95765.38
2019-05-11T05:41:57.019Z,95775.89
2019-05-11T05:43:03.420Z,95774.59
2019-05-11T05:44:10.994Z,95775.89
2019-05-11T05:45:18.323Z,95768.92
2019-05-11T05:46:25.982Z,95777.66
2019-05-11T05:47:33.193Z,95776.71
2019-05-11T05:48:40.779Z,95779.17
2019-05-11T05:49:47.990Z,95772.55
2019-05-11T05:50:55.576Z,95771.13
2019-05-11T05:52:02.827Z,95771.47
2019-05-11T05:53:10.404Z,95768.60
2019-05-11T05:54:17.619Z,95772.33
2019-05-11T05:55:25.202Z,95775.14
2019-05-11T05:56:32.428Z,95775.69
2019-05-11T05:57:40.044Z,95777.67
2019-05-11T05:58:47.268Z,95780.48
2019-05-11T05:59:54.890Z,95776.77
2019-05-11T06:01:02.111Z,95768.70
2019-05-11T06:02:09.726Z,95778.00
2019-05-11T06:03:16.969Z,95776.09
2019-05-11T06:04:24.538Z,95776.30
2019-05-11T06:05:31.750Z,95779.08
2019-05-11T06:06:39.320Z,95777.54
2019-05-11T06:07:46.531Z,95778.09
2019-05-11T06:08:54.124Z,95779.94
2019-05-11T06:10:01.319Z,95778.67
2019-05-11T06:11:10.175Z,95782.78
2019-05-11T06:12:17.386Z,95773.07
2019-05-11T06:13:24.961Z,95773.28
2019-05-11T06:14:32.214Z,95772.66
2019-05-11T06:15:39.815Z,95764.70
2019-05-11T06:16:47.032Z,95771.87
2019-05-11T06:17:54.611Z,95767.37
2019-05-11T06:19:01.837Z,95770.65
2019-05-11T06:20:09.858Z,95770.03
2019-05-11T06:21:17.191Z,95774.14
2019-05-11T06:22:24.764Z,95768.29
2019-05-11T06:23:31.958Z,95780.39
2019-05-11T06:24:39.542Z,95777.52
2019-05-11T06:25:46.759Z,95773.00
2019-05-11T06:26:54.326Z,95774.98
2019-05-11T06:28:02.620Z,95774.54
2019-05-11T06:29:10.202Z,95778.64
2019-05-11T06:30:18.506Z,95780.28
2019-05-11T06:31:26.094Z,95775.62
2019-05-11T06:32:33.308Z,95770.42
2019-05-11T06:33:40.890Z,95779.22
2019-05-11T06:34:48.111Z,95783.94
2019-05-11T06:35:55.688Z,95786.73
2019-05-11T06:37:02.913Z,95780.58
2019-05-11T06:38:10.500Z,95781.73
2019-05-11T06:39:17.725Z,95780.64
2019-05-11T06:40:28.356Z,95776.94
2019-05-11T06:41:34.249Z,95775.67
2019-05-11T06:42:41.856Z,95778.61
2019-05-11T06:44:01.401Z,95783.19
2019-05-11T06:44:58.343Z,95779.97
2019-05-11T06:46:05.566Z,95780.45
2019-05-11T06:47:13.215Z,95776.41
2019-05-11T06:48:20.422Z,95779.83
2019-05-11T06:49:28.030Z,95786.81
2019-05-11T06:50:35.234Z,95777.23
2019-05-11T06:51:42.836Z,95783.25
2019-05-11T06:52:50.724Z,95780.98
2019-05-11T06:53:58.297Z,95778.70
2019-05-11T06:55:05.732Z,95788.96
2019-05-11T06:56:13.301Z,95778.90
2019-05-11T06:57:20.543Z,95782.66
2019-05-11T06:58:28.131Z,95792.44
2019-05-11T06:59:35.450Z,95789.70
2019-05-11T07:00:43.062Z,95796.88
2019-05-11T07:01:50.315Z,95782.91
2019-05-11T07:02:57.915Z,95787.16
2019-05-11T07:04:06.720Z,95787.33
2019-05-11T07:05:14.498Z,95798.09
2019-05-11T07:06:25.566Z,95794.88
2019-05-11T07:07:45.269Z,95792.95
2019-05-11T07:08:39.926Z,95800.62
2019-05-11T07:09:47.512Z,95789.73
2019-05-11T07:10:54.742Z,95794.31
2019-05-11T07:12:02.435Z,95797.08
2019-05-11T07:13:10.425Z,95797.28
2019-05-11T07:14:21.062Z,95807.73
2019-05-11T07:15:26.935Z,95803.89
2019-05-11T07:16:34.525Z,95800.97
2019-05-11T07:17:41.740Z,95804.94
2019-05-11T07:18:49.315Z,95800.41
2019-05-11T07:19:56.551Z,95796.22
2019-05-11T07:21:04.154Z,95801.44
2019-05-11T07:22:11.364Z,95801.97
2019-05-11T07:23:18.957Z,95813.88
2019-05-11T07:24:26.186Z,95801.88
2019-05-11T07:25:33.791Z,95811.98
2019-05-11T07:26:41.017Z,95801.91
2019-05-11T07:27:48.588Z,95806.48
2019-05-11T07:28:55.799Z,95810.25
2019-05-11T07:30:03.377Z,95811.74
2019-05-11T07:31:11.782Z,95804.13
2019-05-11T07:32:24.944Z,95812.75
2019-05-11T07:33:28.751Z,95807.70
2019-05-11T07:34:38.373Z,95811.47
2019-05-11T07:35:47.701Z,95806.12
2019-05-11T07:36:54.695Z,95807.42
2019-05-11T07:38:01.938Z,95807.28
2019-05-11T07:39:09.928Z,95808.09
2019-05-11T07:40:18.742Z,95815.77
2019-05-11T07:41:28.131Z,95810.75
2019-05-11T07:42:37.724Z,95813.20
2019-05-11T07:43:44.949Z,95814.33
2019-05-11T07:44:52.132Z,95819.54
2019-05-11T07:45:59.708Z,95815.81
2019-05-11T07:47:07.922Z,95812.21
2019-05-11T07:48:15.689Z,95808.00
2019-05-11T07:49:23.523Z,95808.78
2019-05-11T07:50:31.433Z,95809.61
2019-05-11T07:51:39.076Z,95813.52
2019-05-11T07:52:48.340Z,95809.80
2019-05-11T07:53:57.708Z,95804.44
2019-05-11T07:55:05.202Z,95809.50
2019-05-11T07:56:12.588Z,95812.30
2019-05-11T07:57:20.158Z,95817.03
2019-05-11T07:58:28.524Z,95812.31
2019-05-11T07:59:38.155Z,95812.66
2019-05-11T08:00:45.514Z,95818.34
2019-05-11T08:01:53.117Z,95815.26
2019-05-11T08:03:01.419Z,95816.08
2019-05-11T08:04:09.005Z,95819.84
2019-05-11T08:05:17.992Z,95814.97
2019-05-11T08:06:25.700Z,95817.77
2019-05-11T08:07:32.919Z,95816.68
2019-05-11T08:08:40.535Z,95813.59
2019-05-11T08:09:48.460Z,95811.82
2019-05-11T08:10:58.484Z,95810.89
2019-05-11T08:12:05.279Z,95813.69
2019-05-11T08:13:12.940Z,95806.20
2019-05-11T08:14:20.199Z,95810.61
2019-05-11T08:15:28.431Z,95811.62
2019-05-11T08:16:38.707Z,95805.96
2019-05-11T08:17:45.178Z,95794.08
2019-05-11T08:18:52.395Z,95803.55
2019-05-11T08:19:59.994Z,95802.39
2019-05-11T08:21:08.894Z,95800.31
2019-05-11T08:22:20.439Z,95810.30
2019-05-11T08:23:25.494Z,95805.75
2019-05-11T08:24:33.079Z,95812.09
2019-05-11T08:25:40.313Z,95807.20
2019-05-11T08:26:48.181Z,95801.69
2019-05-11T08:27:55.508Z,95799.42
2019-05-11T08:29:03.102Z,95802.21
2019-05-11T08:30:12.586Z,95803.37
2019-05-11T08:31:20.196Z,95794.42
2019-05-11T08:32:28.637Z,95798.83
2019-05-11T08:33:38.692Z,95803.41
2019-05-11T08:34:45.406Z,95805.38
2019-05-11T08:35:52.994Z,95797.55
2019-05-11T08:37:00.221Z,95799.86
2019-05-11T08:38:08.809Z,95806.72
2019-05-11T08:39:18.206Z,95805.75
2019-05-11T08:40:25.609Z,95807.35
2019-05-11T08:41:33.205Z,95808.02
2019-05-11T08:42:40.814Z,95814.23
2019-05-11T08:43:48.234Z,95803.50
2019-05-11T08:45:11.743Z,95803.69
2019-05-11T08:46:04.811Z,95811.66
2019-05-11T08:47:12.478Z,95810.06
2019-05-11T08:48:19.686Z,95800.44
2019-05-11T08:49:28.648Z,95800.29
2019-05-11T08:50:38.299Z,95788.73
2019-05-11T08:51:47.654Z,95787.97
2019-05-11T08:52:54.413Z,95790.24
2019-05-11T08:54:01.981Z,95794.52
2019-05-11T08:55:09.807Z,95800.88
2019-05-11T08:56:18.849Z,95795.20
2019-05-11T08:57:28.467Z,95796.38
2019-05-11T08:58:37.829Z,95794.73
2019-05-11T08:59:44.515Z,95793.94
2019-05-11T09:00:52.478Z,95799.34
2019-05-11T09:01:59.703Z,95790.38
2019-05-11T09:03:08.574Z,95787.45
2019-05-11T09:04:18.141Z,95791.03
2019-05-11T09:05:25.191Z,95789.75
2019-05-11T09:06:32.416Z,95785.52
2019-05-11T09:07:40.001Z,95789.42
2019-05-11T09:08:49.283Z,95783.89
2019-05-11T09:09:58.622Z,95784.72
2019-05-11T09:11:05.444Z,95779.67
2019-05-11T09:12:13.062Z,95786.67
2019-05-11T09:13:20.317Z,95790.77
2019-05-11T09:14:28.982Z,95786.37
2019-05-11T09:15:39.756Z,95788.16
2019-05-11T09:16:45.584Z,95786.70
2019-05-11T09:17:52.821Z,95789.15
2019-05-11T09:19:00.391Z,95794.88
2019-05-11T09:20:08.717Z,95784.27
2019-05-11T09:21:18.986Z,95796.23
2019-05-11T09:22:28.365Z,95791.14
2019-05-11T09:23:39.795Z,95805.84
2019-05-11T09:24:44.771Z,95799.31
2019-05-11T09:25:52.423Z,95787.06
2019-05-11T09:26:59.658Z,95788.86
2019-05-11T09:28:08.593Z,95794.91
2019-05-11T09:29:17.764Z,95787.88
2019-05-11T09:30:25.207Z,95796.21
2019-05-11T09:31:32.582Z,95777.26
2019-05-11T09:32:40.200Z,95788.53
2019-05-11T09:33:48.010Z,95782.00
2019-05-11T09:34:58.006Z,95778.08
2019-05-11T09:36:04.978Z,95776.28
2019-05-11T09:37:12.732Z,95777.92
2019-05-11T09:38:19.976Z,95769.11
2019-05-11T09:39:28.182Z,95776.14
2019-05-11T09:40:35.444Z,95772.88
2019-05-11T09:41:43.020Z,95768.15
2019-05-11T09:42:50.241Z,95778.25
2019-05-11T09:43:58.698Z,95776.30
2019-05-11T09:45:07.972Z,95782.19
2019-05-11T09:46:18.953Z,95786.27
2019-05-11T09:47:27.789Z,95780.07
2019-05-11T09:48:34.956Z,95785.63
2019-05-11T09:49:47.468Z,95779.91
2019-05-11T09:50:51.399Z,95778.90
2019-05-11T09:51:59.084Z,95779.23
2019-05-11T09:53:08.531Z,95783.64
2019-05-11T09:54:18.104Z,95786.25
2019-05-11T09:55:24.952Z,95788.87
2019-05-11T09:56:32.152Z,95790.37
2019-05-11T09:57:39.770Z,95787.42
2019-05-11T09:58:47.935Z,95787.25
2019-05-11T09:59:58.123Z,95778.75
2019-05-11T10:01:05.825Z,95782.82
2019-05-11T10:02:13.411Z,95790.20
2019-05-11T10:03:20.621Z,95791.98
2019-05-11T10:04:28.964Z,95787.23
2019-05-11T10:05:38.305Z,95792.95
2019-05-11T10:06:47.841Z,95792.09
2019-05-11T10:07:54.533Z,95803.83
2019-05-11T10:09:02.120Z,95810.05
2019-05-11T10:10:09.945Z,95813.30
2019-05-11T10:11:19.026Z,95811.65
2019-05-11T10:12:28.530Z,95816.24
2019-05-11T10:13:38.256Z,95820.47
2019-05-11T10:14:44.671Z,95821.76
2019-05-11T10:16:03.619Z,95826.66
2019-05-11T10:17:01.162Z,95824.36
2019-05-11T10:18:08.838Z,95821.88
2019-05-11T10:19:17.928Z,95826.10
2019-05-11T10:20:25.600Z,95830.02
2019-05-11T10:21:32.916Z,95832.43
2019-05-11T10:22:40.507Z,95844.67
2019-05-11T10:23:48.975Z,95850.83
2019-05-11T10:24:58.245Z,95849.68
2019-05-11T10:26:07.794Z,95846.53
2019-05-11T10:27:15.005Z,95852.87
2019-05-11T10:28:23.278Z,95838.61
2019-05-11T10:29:33.808Z,95838.23
2019-05-11T10:30:39.755Z,95836.94
2019-05-11T10:31:48.034Z,95827.77
2019-05-11T10:32:57.622Z,95831.65
2019-05-11T10:34:05.784Z,95835.07
2019-05-11T10:35:13.219Z,95830.16
2019-05-11T10:36:20.823Z,95834.36
2019-05-11T10:37:28.345Z,95836.79
2019-05-11T10:38:37.950Z,95830.94
2019-05-11T10:39:44.899Z,95827.99
2019-05-11T10:40:52.483Z,95829.59
2019-05-11T10:41:59.760Z,95829.44
2019-05-11T10:43:08.045Z,95826.35
2019-05-11T10:44:15.380Z,95835.97
2019-05-11T10:45:22.978Z,95834.52
2019-05-11T10:46:30.189Z,95824.61
2019-05-11T10:47:38.350Z,95824.64
2019-05-11T10:48:47.969Z,95829.56
2019-05-11T10:49:55.055Z,95831.72
2019-05-11T10:51:02.289Z,95820.31
2019-05-11T10:52:09.938Z,95824.44
2019-05-11T10:53:18.470Z,95824.02
2019-05-11T10:54:28.825Z,95831.69
2019-05-11T10:55:38.702Z,95835.48
2019-05-11T10:56:48.144Z,95834.17
2019-05-11T10:57:55.066Z,95825.88
2019-05-11T10:59:02.668Z,95841.58
2019-05-11T11:00:12.265Z,95841.41
2019-05-11T11:01:19.850Z,95847.15
2019-05-11T11:02:27.757Z,95850.76
2019-05-11T11:03:37.681Z,95846.84
2019-05-11T11:04:44.557Z,95839.67
2019-05-11T11:05:52.128Z,95838.67
2019-05-11T11:06:59.358Z,95846.84
2019-05-11T11:08:08.265Z,95841.46
2019-05-11T11:09:17.727Z,95853.39
2019-05-11T11:10:25.028Z,95844.73
2019-05-11T11:11:32.293Z,95850.62
2019-05-11T11:12:39.944Z,95852.44
2019-05-11T11:13:48.021Z,95854.22
2019-05-11T11:14:55.939Z,95861.59
2019-05-11T11:16:03.162Z,95858.52
2019-05-11T11:17:10.764Z,95860.15
2019-05-11T11:18:18.914Z,95845.47
2019-05-11T11:19:28.983Z,95856.27
2019-05-11T11:20:38.245Z,95857.08
2019-05-11T11:21:45.058Z,95861.50
2019-05-11T11:22:52.371Z,95860.25
2019-05-11T11:23:59.969Z,95859.75
2019-05-11T11:25:08.022Z,95849.64
2019-05-11T11:26:15.609Z,95852.57
2019-05-11T11:27:22.848Z,95850.97
2019-05-11T11:28:30.437Z,95845.73
2019-05-11T11:29:38.833Z,95845.27
2019-05-11T11:30:48.091Z,95844.28
2019-05-11T11:31:55.448Z,95838.72
2019-05-11T11:33:03.044Z,95831.34
2019-05-11T11:34:10.268Z,95834.14
2019-05-11T11:35:18.770Z,95836.08
2019-05-11T11:36:28.373Z,95813.67
2019-05-11T11:37:38.447Z,95819.69
2019-05-11T11:38:45.052Z,95823.91
2019-05-11T11:39:52.642Z,95831.42
2019-05-11T11:40:59.880Z,95828.44
2019-05-11T11:42:08.386Z,95835.14
2019-05-11T11:43:17.901Z,95828.23
2019-05-11T11:44:25.041Z,95822.81
2019-05-11T11:45:32.263Z,95829.97
2019-05-11T11:46:51.323Z,95820.66
2019-05-11T11:47:49.454Z,95822.58
2019-05-11T11:48:58.174Z,95815.35
2019-05-11T11:50:09.161Z,95840.52
2019-05-11T11:51:18.534Z,95824.12
2019-05-11T11:52:25.221Z,95823.90
2019-05-11T11:53:34.507Z,95823.72
2019-05-11T11:54:41.713Z,95825.13
2019-05-11T11:55:49.366Z,95825.59
2019-05-11T11:56:58.766Z,95831.75
2019-05-11T11:58:08.089Z,95829.55
2019-05-11T11:59:14.847Z,95827.73
2019-05-11T12:00:23.168Z,95830.36
2019-05-11T12:01:30.413Z,95828.17
2019-05-11T12:02:38.781Z,95831.45
2019-05-11T12:03:48.468Z,95830.11
2019-05-11T12:04:55.447Z,95832.56
2019-05-11T12:06:02.674Z,95826.00
2019-05-11T12:07:10.275Z,95830.91
2019-05-11T12:08:18.883Z,95828.08
2019-05-11T12:09:28.633Z,95831.02
2019-05-11T12:10:37.796Z,95836.59
2019-05-11T12:11:44.912Z,95843.15
2019-05-11T12:12:52.136Z,95845.45
2019-05-11T12:13:59.755Z,95844.63
2019-05-11T12:15:08.887Z,95848.25
2019-05-11T12:16:17.962Z,95853.88
2019-05-11T12:17:25.539Z,95849.96
2019-05-11T12:18:33.204Z,95866.86
2019-05-11T12:19:40.411Z,95862.01
2019-05-11T12:20:48.204Z,95870.85
2019-05-11T12:21:57.429Z,95876.48
2019-05-11T12:23:04.777Z,95868.70
2019-05-11T12:24:12.000Z,95873.84
2019-05-11T12:25:19.586Z,95876.98
2019-05-11T12:26:28.218Z,95871.80
2019-05-11T12:27:38.113Z,95885.45
2019-05-11T12:28:44.773Z,95891.03
2019-05-11T12:29:52.363Z,95888.78
2019-05-11T12:30:59.588Z,95896.61
2019-05-11T12:32:09.842Z,95902.34
2019-05-11T12:33:18.751Z,95873.41
2019-05-11T12:34:28.319Z,95881.77
2019-05-11T12:35:37.603Z,95878.69
2019-05-11T12:36:45.019Z,95874.59
2019-05-11T12:37:52.243Z,95881.30
2019-05-11T12:38:59.907Z,95874.27
2019-05-11T12:40:09.096Z,95874.10
2019-05-11T12:41:19.009Z,95867.52
2019-05-11T12:42:25.754Z,95862.11
2019-05-11T12:43:33.332Z,95869.27
2019-05-11T12:44:40.580Z,95864.03
2019-05-11T12:45:48.319Z,95868.14
2019-05-11T12:46:58.151Z,95870.39
2019-05-11T12:48:04.855Z,95867.10
2019-05-11T12:49:12.053Z,95873.28
2019-05-11T12:50:20.249Z,95873.27
2019-05-11T12:51:27.787Z,95872.23
2019-05-11T12:52:35.330Z,95865.02
2019-05-11T12:53:42.543Z,95878.12
2019-05-11T12:54:50.183Z,95873.20
2019-05-11T12:55:58.909Z,95876.64
2019-05-11T12:57:07.997Z,95882.20
2019-05-11T12:58:17.969Z,95878.94
2019-05-11T12:59:24.568Z,95882.55
2019-05-11T13:00:31.780Z,95873.53
2019-05-11T13:01:39.352Z,95876.16
2019-05-11T13:02:48.502Z,95868.78
2019-05-11T13:03:57.892Z,95877.14
2019-05-11T13:05:05.109Z,95876.00
2019-05-11T13:06:13.985Z,95872.07
2019-05-11T13:07:21.256Z,95876.50
2019-05-11T13:08:28.874Z,95875.51
2019-05-11T13:09:37.966Z,95875.02
2019-05-11T13:10:47.724Z,95876.98
2019-05-11T13:11:54.886Z,95875.83
2019-05-11T13:13:02.850Z,95878.08
2019-05-11T13:14:10.239Z,95874.30
2019-05-11T13:15:18.021Z,95878.88
2019-05-11T13:16:25.232Z,95875.27